sensor_id;sensor_type;location;lat;lon;timestamp;temperature;humidity
7496;DHT22;3789;47.064;15.482;2023-04-15T00:00:01;5.00;99.90
7496;DHT22;3789;47.064;15.482;2023-04-15T00:02:30;5.00;99.90
7496;DHT22;3789;47.064;15.482;2023-04-15T00:04:58;5.10;99.90
7496;DHT22;3789;47.064;15.482;2023-04-15T00:07:40;5.10;99.90
7496;DHT22;3789;47.064;15.482;2023-04-15T00:10:08;5.10;99.90
7496;DHT22;3789;47.064;15.482;2023-04-15T00:12:38;5.10;99.90
7496;DHT22;3789;47.064;15.482;2023-04-15T00:15:10;5.20;99.90
7496;DHT22;3789;47.064;15.482;2023-04-15T00:17:41;5.20;99.90
7496;DHT22;3789;47.064;15.482;2023-04-15T00:20:10;5.20;99.90
7496;DHT22;3789;47.064;15.482;2023-04-15T00:22:39;5.20;99.90
7496;DHT22;3789;47.064;15.482;2023-04-15T00:25:08;5.20;99.90
7496;DHT22;3789;47.064;15.482;2023-04-15T00:27:38;5.20;99.90
7496;DHT22;3789;47.064;15.482;2023-04-15T00:30:09;5.30;99.90
7496;DHT22;3789;47.064;15.482;2023-04-15T00:32:41;5.30;99.90
7496;DHT22;3789;47.064;15.482;2023-04-15T00:35:11;5.40;99.90
7496;DHT22;3789;47.064;15.482;2023-04-15T00:37:42;5.40;99.90
7496;DHT22;3789;47.064;15.482;2023-04-15T00:40:18;5.40;99.90
7496;DHT22;3789;47.064;15.482;2023-04-15T00:42:49;5.40;99.90
7496;DHT22;3789;47.064;15.482;2023-04-15T00:45:28;5.40;99.90
7496;DHT22;3789;47.064;15.482;2023-04-15T00:47:59;5.50;99.90
7496;DHT22;3789;47.064;15.482;2023-04-15T00:50:28;5.50;99.90
7496;DHT22;3789;47.064;15.482;2023-04-15T00:52:58;5.50;99.90
7496;DHT22;3789;47.064;15.482;2023-04-15T00:55:29;5.50;99.90
7496;DHT22;3789;47.064;15.482;2023-04-15T00:57:57;5.50;99.90
7496;DHT22;3789;47.064;15.482;2023-04-15T01:00:26;5.50;99.90
7496;DHT22;3789;47.064;15.482;2023-04-15T01:02:56;5.50;99.90
7496;DHT22;3789;47.064;15.482;2023-04-15T01:05:27;5.50;99.90
7496;DHT22;3789;47.064;15.482;2023-04-15T01:07:56;5.50;99.90
7496;DHT22;3789;47.064;15.482;2023-04-15T01:10:27;5.50;99.90
7496;DHT22;3789;47.064;15.482;2023-04-15T01:12:54;5.40;99.90
7496;DHT22;3789;47.064;15.482;2023-04-15T01:15:21;5.40;99.90
7496;DHT22;3789;47.064;15.482;2023-04-15T01:17:58;5.40;99.90
7496;DHT22;3789;47.064;15.482;2023-04-15T01:20:28;5.50;99.90
7496;DHT22;3789;47.064;15.482;2023-04-15T01:22:57;5.40;99.90
7496;DHT22;3789;47.064;15.482;2023-04-15T01:25:36;5.40;99.90
7496;DHT22;3789;47.064;15.482;2023-04-15T01:28:05;5.40;99.90
7496;DHT22;3789;47.064;15.482;2023-04-15T01:30:35;5.40;99.90
7496;DHT22;3789;47.064;15.482;2023-04-15T01:33:05;5.40;99.90
7496;DHT22;3789;47.064;15.482;2023-04-15T01:35:50;5.40;99.90
7496;DHT22;3789;47.064;15.482;2023-04-15T01:38:26;5.30;99.90
7496;DHT22;3789;47.064;15.482;2023-04-15T01:41:15;5.30;99.90
7496;DHT22;3789;47.064;15.482;2023-04-15T01:43:47;5.20;99.90
7496;DHT22;3789;47.064;15.482;2023-04-15T01:46:19;5.20;99.90
7496;DHT22;3789;47.064;15.482;2023-04-15T01:48:59;5.20;99.90
7496;DHT22;3789;47.064;15.482;2023-04-15T01:52:15;5.20;99.90
7496;DHT22;3789;47.064;15.482;2023-04-15T01:57:53;5.10;99.90
7496;DHT22;3789;47.064;15.482;2023-04-15T02:00:36;5.10;99.90
7496;DHT22;3789;47.064;15.482;2023-04-15T02:03:42;5.20;99.90
7496;DHT22;3789;47.064;15.482;2023-04-15T02:06:24;5.10;99.90
7496;DHT22;3789;47.064;15.482;2023-04-15T02:09:08;5.20;99.90
7496;DHT22;3789;47.064;15.482;2023-04-15T02:11:44;5.20;99.90
7496;DHT22;3789;47.064;15.482;2023-04-15T02:14:18;5.10;99.90
7496;DHT22;3789;47.064;15.482;2023-04-15T02:16:45;5.20;99.90
7496;DHT22;3789;47.064;15.482;2023-04-15T02:19:18;5.20;99.90
7496;DHT22;3789;47.064;15.482;2023-04-15T02:22:06;5.20;99.90
7496;DHT22;3789;47.064;15.482;2023-04-15T02:24:59;5.30;99.90
7496;DHT22;3789;47.064;15.482;2023-04-15T02:27:50;5.30;99.90
7496;DHT22;3789;47.064;15.482;2023-04-15T02:30:25;5.20;99.90
7496;DHT22;3789;47.064;15.482;2023-04-15T02:33:11;5.20;99.90
7496;DHT22;3789;47.064;15.482;2023-04-15T02:35:47;5.30;99.90
7496;DHT22;3789;47.064;15.482;2023-04-15T02:38:39;5.20;99.90
7496;DHT22;3789;47.064;15.482;2023-04-15T02:41:11;5.20;99.90
7496;DHT22;3789;47.064;15.482;2023-04-15T02:43:42;5.20;99.90
7496;DHT22;3789;47.064;15.482;2023-04-15T02:46:12;5.20;99.90
7496;DHT22;3789;47.064;15.482;2023-04-15T02:49:07;5.20;99.90
7496;DHT22;3789;47.064;15.482;2023-04-15T02:51:35;5.20;99.90
7496;DHT22;3789;47.064;15.482;2023-04-15T02:54:23;5.20;99.90
7496;DHT22;3789;47.064;15.482;2023-04-15T02:57:10;5.30;99.90
7496;DHT22;3789;47.064;15.482;2023-04-15T02:59:40;5.20;99.90
7496;DHT22;3789;47.064;15.482;2023-04-15T03:02:37;5.20;99.90
7496;DHT22;3789;47.064;15.482;2023-04-15T03:05:14;5.10;99.90
7496;DHT22;3789;47.064;15.482;2023-04-15T03:07:51;5.10;99.90
7496;DHT22;3789;47.064;15.482;2023-04-15T03:11:02;5.10;99.90
7496;DHT22;3789;47.064;15.482;2023-04-15T03:14:02;5.20;99.90
7496;DHT22;3789;47.064;15.482;2023-04-15T03:16:38;5.20;99.90
7496;DHT22;3789;47.064;15.482;2023-04-15T03:22:14;5.20;99.90
7496;DHT22;3789;47.064;15.482;2023-04-15T03:25:13;5.20;99.90
7496;DHT22;3789;47.064;15.482;2023-04-15T03:27:57;5.20;99.90
7496;DHT22;3789;47.064;15.482;2023-04-15T03:30:34;5.20;99.90
7496;DHT22;3789;47.064;15.482;2023-04-15T03:33:12;5.10;99.90
7496;DHT22;3789;47.064;15.482;2023-04-15T03:35:53;5.00;99.90
7496;DHT22;3789;47.064;15.482;2023-04-15T03:38:45;5.00;99.90
7496;DHT22;3789;47.064;15.482;2023-04-15T03:41:27;5.10;99.90
7496;DHT22;3789;47.064;15.482;2023-04-15T03:44:20;5.10;99.90
7496;DHT22;3789;47.064;15.482;2023-04-15T03:46:53;5.10;99.90
7496;DHT22;3789;47.064;15.482;2023-04-15T03:49:36;5.10;99.90
7496;DHT22;3789;47.064;15.482;2023-04-15T03:52:17;5.10;99.90
7496;DHT22;3789;47.064;15.482;2023-04-15T03:54:46;5.10;99.90
7496;DHT22;3789;47.064;15.482;2023-04-15T03:57:24;5.10;99.90
7496;DHT22;3789;47.064;15.482;2023-04-15T04:00:11;5.10;99.90
7496;DHT22;3789;47.064;15.482;2023-04-15T04:03:09;5.10;99.90
7496;DHT22;3789;47.064;15.482;2023-04-15T04:05:41;5.00;99.90
7496;DHT22;3789;47.064;15.482;2023-04-15T04:08:35;5.00;99.90
7496;DHT22;3789;47.064;15.482;2023-04-15T04:11:16;5.00;99.90
7496;DHT22;3789;47.064;15.482;2023-04-15T04:14:16;4.90;99.90
7496;DHT22;3789;47.064;15.482;2023-04-15T04:17:00;5.00;99.90
7496;DHT22;3789;47.064;15.482;2023-04-15T04:22:36;5.00;99.90
7496;DHT22;3789;47.064;15.482;2023-04-15T04:25:26;5.00;99.90
7496;DHT22;3789;47.064;15.482;2023-04-15T04:30:58;5.00;99.90
7496;DHT22;3789;47.064;15.482;2023-04-15T04:33:49;5.00;99.90
7496;DHT22;3789;47.064;15.482;2023-04-15T04:36:35;5.00;99.90
7496;DHT22;3789;47.064;15.482;2023-04-15T04:39:16;5.00;99.90
7496;DHT22;3789;47.064;15.482;2023-04-15T04:42:15;5.00;99.90
7496;DHT22;3789;47.064;15.482;2023-04-15T04:45:01;5.10;99.90
7496;DHT22;3789;47.064;15.482;2023-04-15T04:51:02;5.10;99.90
7496;DHT22;3789;47.064;15.482;2023-04-15T04:54:08;5.00;99.90
7496;DHT22;3789;47.064;15.482;2023-04-15T04:56:58;3.60;99.90
7496;DHT22;3789;47.064;15.482;2023-04-15T04:59:27;2.30;99.90
7496;DHT22;3789;47.064;15.482;2023-04-15T05:02:13;1.40;99.90
7496;DHT22;3789;47.064;15.482;2023-04-15T05:04:44;0.80;99.90
7496;DHT22;3789;47.064;15.482;2023-04-15T05:07:19;0.40;99.90
7496;DHT22;3789;47.064;15.482;2023-04-15T05:09:54;1.30;99.90
7496;DHT22;3789;47.064;15.482;2023-04-15T05:12:32;1.00;99.90
7496;DHT22;3789;47.064;15.482;2023-04-15T05:15:07;1.00;99.90
7496;DHT22;3789;47.064;15.482;2023-04-15T05:17:38;0.60;99.90
7496;DHT22;3789;47.064;15.482;2023-04-15T05:20:23;0.30;99.90
7496;DHT22;3789;47.064;15.482;2023-04-15T05:22:54;0.20;99.90
7496;DHT22;3789;47.064;15.482;2023-04-15T05:26:06;0.60;99.90
7496;DHT22;3789;47.064;15.482;2023-04-15T05:28:37;0.20;99.90
7496;DHT22;3789;47.064;15.482;2023-04-15T05:31:07;0.10;99.90
7496;DHT22;3789;47.064;15.482;2023-04-15T05:33:41;0.00;99.90
7496;DHT22;3789;47.064;15.482;2023-04-15T05:36:22;-0.60;99.90
7496;DHT22;3789;47.064;15.482;2023-04-15T05:39:02;-0.50;99.90
7496;DHT22;3789;47.064;15.482;2023-04-15T05:41:37;-0.40;99.90
7496;DHT22;3789;47.064;15.482;2023-04-15T05:44:08;-0.30;99.90
7496;DHT22;3789;47.064;15.482;2023-04-15T05:46:44;-0.30;99.90
7496;DHT22;3789;47.064;15.482;2023-04-15T05:49:24;-0.60;99.90
7496;DHT22;3789;47.064;15.482;2023-04-15T05:52:03;-0.50;99.90
7496;DHT22;3789;47.064;15.482;2023-04-15T05:55:11;1.60;99.90
7496;DHT22;3789;47.064;15.482;2023-04-15T05:57:56;3.40;99.90
7496;DHT22;3789;47.064;15.482;2023-04-15T06:00:53;4.00;99.90
7496;DHT22;3789;47.064;15.482;2023-04-15T06:03:36;4.30;99.90
7496;DHT22;3789;47.064;15.482;2023-04-15T06:06:25;4.40;99.90
7496;DHT22;3789;47.064;15.482;2023-04-15T06:09:06;4.50;99.90
7496;DHT22;3789;47.064;15.482;2023-04-15T06:12:05;4.60;99.90
7496;DHT22;3789;47.064;15.482;2023-04-15T06:14:39;4.80;99.90
7496;DHT22;3789;47.064;15.482;2023-04-15T06:17:09;4.80;99.90
7496;DHT22;3789;47.064;15.482;2023-04-15T06:19:47;4.90;99.90
7496;DHT22;3789;47.064;15.482;2023-04-15T06:22:23;5.00;99.90
7496;DHT22;3789;47.064;15.482;2023-04-15T06:24:53;5.00;99.90
7496;DHT22;3789;47.064;15.482;2023-04-15T06:27:22;5.10;99.90
7496;DHT22;3789;47.064;15.482;2023-04-15T06:32:41;5.10;99.90
7496;DHT22;3789;47.064;15.482;2023-04-15T06:35:10;5.20;99.90
7496;DHT22;3789;47.064;15.482;2023-04-15T06:37:44;5.30;99.90
7496;DHT22;3789;47.064;15.482;2023-04-15T06:40:28;5.50;99.90
7496;DHT22;3789;47.064;15.482;2023-04-15T06:43:06;5.50;99.90
7496;DHT22;3789;47.064;15.482;2023-04-15T06:45:37;5.50;99.90
7496;DHT22;3789;47.064;15.482;2023-04-15T06:48:06;5.60;99.90
7496;DHT22;3789;47.064;15.482;2023-04-15T06:50:37;5.70;99.90
7496;DHT22;3789;47.064;15.482;2023-04-15T06:53:06;5.80;99.90
7496;DHT22;3789;47.064;15.482;2023-04-15T06:55:33;5.90;99.90
7496;DHT22;3789;47.064;15.482;2023-04-15T06:58:05;6.00;99.90
7496;DHT22;3789;47.064;15.482;2023-04-15T07:00:39;6.10;99.90
7496;DHT22;3789;47.064;15.482;2023-04-15T07:03:11;6.20;99.90
7496;DHT22;3789;47.064;15.482;2023-04-15T07:05:42;6.30;99.90
7496;DHT22;3789;47.064;15.482;2023-04-15T07:08:13;6.30;99.90
7496;DHT22;3789;47.064;15.482;2023-04-15T07:10:47;6.40;99.90
7496;DHT22;3789;47.064;15.482;2023-04-15T07:13:15;6.50;99.90
7496;DHT22;3789;47.064;15.482;2023-04-15T07:15:45;6.50;99.90
7496;DHT22;3789;47.064;15.482;2023-04-15T07:18:14;6.50;99.90
7496;DHT22;3789;47.064;15.482;2023-04-15T07:20:45;6.50;99.90
7496;DHT22;3789;47.064;15.482;2023-04-15T07:23:14;6.50;99.90
7496;DHT22;3789;47.064;15.482;2023-04-15T07:25:43;6.50;99.90
7496;DHT22;3789;47.064;15.482;2023-04-15T07:28:14;6.40;99.90
7496;DHT22;3789;47.064;15.482;2023-04-15T07:30:44;6.40;99.90
7496;DHT22;3789;47.064;15.482;2023-04-15T07:33:20;6.50;99.90
7496;DHT22;3789;47.064;15.482;2023-04-15T07:35:56;6.50;99.90
7496;DHT22;3789;47.064;15.482;2023-04-15T07:38:30;6.50;99.90
7496;DHT22;3789;47.064;15.482;2023-04-15T07:40:58;6.60;99.90
7496;DHT22;3789;47.064;15.482;2023-04-15T07:43:31;6.60;99.90
7496;DHT22;3789;47.064;15.482;2023-04-15T07:46:02;6.70;99.90
7496;DHT22;3789;47.064;15.482;2023-04-15T07:48:30;6.70;99.90
7496;DHT22;3789;47.064;15.482;2023-04-15T07:51:06;6.80;99.90
7496;DHT22;3789;47.064;15.482;2023-04-15T07:53:35;6.80;99.90
7496;DHT22;3789;47.064;15.482;2023-04-15T07:56:12;7.00;99.90
7496;DHT22;3789;47.064;15.482;2023-04-15T07:58:43;7.00;99.90
7496;DHT22;3789;47.064;15.482;2023-04-15T08:01:11;7.10;99.90
7496;DHT22;3789;47.064;15.482;2023-04-15T08:03:50;7.20;99.90
7496;DHT22;3789;47.064;15.482;2023-04-15T08:06:22;7.30;99.90
7496;DHT22;3789;47.064;15.482;2023-04-15T08:08:53;7.40;99.90
7496;DHT22;3789;47.064;15.482;2023-04-15T08:11:26;7.40;99.90
7496;DHT22;3789;47.064;15.482;2023-04-15T08:13:55;7.30;99.90
7496;DHT22;3789;47.064;15.482;2023-04-15T08:16:26;7.30;99.90
7496;DHT22;3789;47.064;15.482;2023-04-15T08:18:58;7.40;99.90
7496;DHT22;3789;47.064;15.482;2023-04-15T08:21:28;7.00;99.90
7496;DHT22;3789;47.064;15.482;2023-04-15T08:23:57;6.50;99.90
7496;DHT22;3789;47.064;15.482;2023-04-15T08:26:27;6.10;99.90
7496;DHT22;3789;47.064;15.482;2023-04-15T08:28:55;5.80;99.90
7496;DHT22;3789;47.064;15.482;2023-04-15T08:31:29;5.10;99.90
7496;DHT22;3789;47.064;15.482;2023-04-15T08:33:59;4.20;99.90
7496;DHT22;3789;47.064;15.482;2023-04-15T08:36:29;3.90;99.90
7496;DHT22;3789;47.064;15.482;2023-04-15T08:39:05;3.70;99.90
7496;DHT22;3789;47.064;15.482;2023-04-15T08:42:15;3.50;99.90
7496;DHT22;3789;47.064;15.482;2023-04-15T08:44:47;3.90;99.90
7496;DHT22;3789;47.064;15.482;2023-04-15T08:47:20;4.60;99.90
7496;DHT22;3789;47.064;15.482;2023-04-15T08:50:00;5.20;99.90
7496;DHT22;3789;47.064;15.482;2023-04-15T08:52:35;5.90;99.90
7496;DHT22;3789;47.064;15.482;2023-04-15T08:55:04;6.40;99.90
7496;DHT22;3789;47.064;15.482;2023-04-15T08:57:36;6.80;99.90
7496;DHT22;3789;47.064;15.482;2023-04-15T09:00:06;7.20;99.90
7496;DHT22;3789;47.064;15.482;2023-04-15T09:02:43;7.50;99.90
7496;DHT22;3789;47.064;15.482;2023-04-15T09:05:14;7.90;99.90
7496;DHT22;3789;47.064;15.482;2023-04-15T09:07:44;8.20;99.90
7496;DHT22;3789;47.064;15.482;2023-04-15T09:10:14;8.50;99.90
7496;DHT22;3789;47.064;15.482;2023-04-15T09:12:50;8.70;99.90
7496;DHT22;3789;47.064;15.482;2023-04-15T09:15:32;9.00;99.90
7496;DHT22;3789;47.064;15.482;2023-04-15T09:18:00;9.20;99.90
7496;DHT22;3789;47.064;15.482;2023-04-15T09:20:43;9.40;99.90
7496;DHT22;3789;47.064;15.482;2023-04-15T09:23:14;9.60;99.90
7496;DHT22;3789;47.064;15.482;2023-04-15T09:25:44;9.80;99.90
7496;DHT22;3789;47.064;15.482;2023-04-15T09:28:25;10.00;99.90
7496;DHT22;3789;47.064;15.482;2023-04-15T09:31:04;10.30;99.90
7496;DHT22;3789;47.064;15.482;2023-04-15T09:33:55;10.30;99.90
7496;DHT22;3789;47.064;15.482;2023-04-15T09:36:37;10.30;99.90
7496;DHT22;3789;47.064;15.482;2023-04-15T09:39:20;10.40;99.90
7496;DHT22;3789;47.064;15.482;2023-04-15T09:42:07;10.50;99.90
7496;DHT22;3789;47.064;15.482;2023-04-15T09:44:41;10.60;99.90
7496;DHT22;3789;47.064;15.482;2023-04-15T09:47:30;10.80;99.90
7496;DHT22;3789;47.064;15.482;2023-04-15T09:50:09;11.00;99.90
7496;DHT22;3789;47.064;15.482;2023-04-15T09:52:44;11.10;99.90
7496;DHT22;3789;47.064;15.482;2023-04-15T09:55:17;11.20;99.90
7496;DHT22;3789;47.064;15.482;2023-04-15T09:57:45;11.40;99.90
7496;DHT22;3789;47.064;15.482;2023-04-15T10:00:17;11.60;99.90
7496;DHT22;3789;47.064;15.482;2023-04-15T10:02:47;11.40;99.90
7496;DHT22;3789;47.064;15.482;2023-04-15T10:05:20;11.30;99.90
7496;DHT22;3789;47.064;15.482;2023-04-15T10:07:52;11.30;99.90
7496;DHT22;3789;47.064;15.482;2023-04-15T10:10:22;11.40;99.90
7496;DHT22;3789;47.064;15.482;2023-04-15T10:12:51;11.40;99.90
7496;DHT22;3789;47.064;15.482;2023-04-15T10:15:22;11.40;99.90
7496;DHT22;3789;47.064;15.482;2023-04-15T10:18:02;11.40;99.90
7496;DHT22;3789;47.064;15.482;2023-04-15T10:20:54;11.60;99.90
7496;DHT22;3789;47.064;15.482;2023-04-15T10:23:52;11.50;99.90
7496;DHT22;3789;47.064;15.482;2023-04-15T10:26:22;11.60;99.90
7496;DHT22;3789;47.064;15.482;2023-04-15T10:28:54;11.70;99.90
7496;DHT22;3789;47.064;15.482;2023-04-15T10:31:25;11.80;99.90
7496;DHT22;3789;47.064;15.482;2023-04-15T10:33:54;12.00;99.90
7496;DHT22;3789;47.064;15.482;2023-04-15T10:36:28;12.00;99.90
7496;DHT22;3789;47.064;15.482;2023-04-15T10:38:55;12.00;99.90
7496;DHT22;3789;47.064;15.482;2023-04-15T10:41:28;12.10;99.90
7496;DHT22;3789;47.064;15.482;2023-04-15T10:44:07;12.00;99.90
7496;DHT22;3789;47.064;15.482;2023-04-15T10:46:44;11.90;99.90
7496;DHT22;3789;47.064;15.482;2023-04-15T10:49:24;11.90;99.90
7496;DHT22;3789;47.064;15.482;2023-04-15T10:52:13;12.00;99.90
7496;DHT22;3789;47.064;15.482;2023-04-15T10:54:46;11.80;99.90
7496;DHT22;3789;47.064;15.482;2023-04-15T10:57:23;11.80;99.90
7496;DHT22;3789;47.064;15.482;2023-04-15T11:00:11;12.00;99.90
7496;DHT22;3789;47.064;15.482;2023-04-15T11:02:47;12.00;99.90
7496;DHT22;3789;47.064;15.482;2023-04-15T11:05:48;12.00;99.90
7496;DHT22;3789;47.064;15.482;2023-04-15T11:08:58;12.00;99.90
7496;DHT22;3789;47.064;15.482;2023-04-15T11:14:52;11.80;99.90
7496;DHT22;3789;47.064;15.482;2023-04-15T11:17:28;11.70;99.90
7496;DHT22;3789;47.064;15.482;2023-04-15T11:19:59;11.80;99.90
7496;DHT22;3789;47.064;15.482;2023-04-15T11:22:28;11.90;99.90
7496;DHT22;3789;47.064;15.482;2023-04-15T11:24:58;12.00;99.90
7496;DHT22;3789;47.064;15.482;2023-04-15T11:27:29;11.90;99.90
7496;DHT22;3789;47.064;15.482;2023-04-15T11:29:58;12.00;99.90
7496;DHT22;3789;47.064;15.482;2023-04-15T11:32:29;12.00;99.90
7496;DHT22;3789;47.064;15.482;2023-04-15T11:35:02;12.10;99.90
7496;DHT22;3789;47.064;15.482;2023-04-15T11:37:34;12.20;99.90
7496;DHT22;3789;47.064;15.482;2023-04-15T11:40:03;12.20;99.90
7496;DHT22;3789;47.064;15.482;2023-04-15T11:42:33;12.20;99.90
7496;DHT22;3789;47.064;15.482;2023-04-15T11:45:17;12.30;99.90
7496;DHT22;3789;47.064;15.482;2023-04-15T11:47:44;12.30;99.90
7496;DHT22;3789;47.064;15.482;2023-04-15T11:50:27;12.20;99.90
7496;DHT22;3789;47.064;15.482;2023-04-15T11:53:04;12.30;99.90
7496;DHT22;3789;47.064;15.482;2023-04-15T11:55:46;12.20;99.90
7496;DHT22;3789;47.064;15.482;2023-04-15T11:58:23;12.20;99.90
7496;DHT22;3789;47.064;15.482;2023-04-15T12:00:56;12.10;99.90
7496;DHT22;3789;47.064;15.482;2023-04-15T12:03:29;12.20;99.90
7496;DHT22;3789;47.064;15.482;2023-04-15T12:06:24;12.20;99.90
7496;DHT22;3789;47.064;15.482;2023-04-15T12:09:11;12.20;99.90
7496;DHT22;3789;47.064;15.482;2023-04-15T12:11:46;12.20;99.90
7496;DHT22;3789;47.064;15.482;2023-04-15T12:14:30;12.10;99.90
7496;DHT22;3789;47.064;15.482;2023-04-15T12:17:03;12.00;99.90
7496;DHT22;3789;47.064;15.482;2023-04-15T12:19:42;12.00;99.90
7496;DHT22;3789;47.064;15.482;2023-04-15T12:22:16;11.90;99.90
7496;DHT22;3789;47.064;15.482;2023-04-15T12:24:45;11.90;99.90
7496;DHT22;3789;47.064;15.482;2023-04-15T12:27:26;11.90;99.90
7496;DHT22;3789;47.064;15.482;2023-04-15T12:30:07;12.00;99.90
7496;DHT22;3789;47.064;15.482;2023-04-15T12:32:40;12.10;99.90
7496;DHT22;3789;47.064;15.482;2023-04-15T12:35:11;12.20;99.90
7496;DHT22;3789;47.064;15.482;2023-04-15T12:37:39;12.20;99.90
7496;DHT22;3789;47.064;15.482;2023-04-15T12:40:09;12.30;99.90
7496;DHT22;3789;47.064;15.482;2023-04-15T12:42:39;12.40;99.90
7496;DHT22;3789;47.064;15.482;2023-04-15T12:45:14;12.50;99.90
7496;DHT22;3789;47.064;15.482;2023-04-15T12:47:47;12.60;99.90
7496;DHT22;3789;47.064;15.482;2023-04-15T12:50:23;12.70;99.90
7496;DHT22;3789;47.064;15.482;2023-04-15T12:52:54;12.70;99.90
7496;DHT22;3789;47.064;15.482;2023-04-15T12:55:31;12.80;99.90
7496;DHT22;3789;47.064;15.482;2023-04-15T12:58:07;12.80;99.90
7496;DHT22;3789;47.064;15.482;2023-04-15T13:00:36;12.80;99.90
7496;DHT22;3789;47.064;15.482;2023-04-15T13:03:07;12.70;99.90
7496;DHT22;3789;47.064;15.482;2023-04-15T13:05:38;12.80;99.90
7496;DHT22;3789;47.064;15.482;2023-04-15T13:08:10;12.80;99.90
7496;DHT22;3789;47.064;15.482;2023-04-15T13:10:45;12.70;99.90
7496;DHT22;3789;47.064;15.482;2023-04-15T13:13:24;12.50;99.90
7496;DHT22;3789;47.064;15.482;2023-04-15T13:15:54;12.20;99.90
7496;DHT22;3789;47.064;15.482;2023-04-15T13:18:30;11.60;99.90
7496;DHT22;3789;47.064;15.482;2023-04-15T13:20:58;11.50;99.90
7496;DHT22;3789;47.064;15.482;2023-04-15T13:23:37;11.50;99.90
7496;DHT22;3789;47.064;15.482;2023-04-15T13:26:07;11.30;99.90
7496;DHT22;3789;47.064;15.482;2023-04-15T13:28:35;11.10;99.90
7496;DHT22;3789;47.064;15.482;2023-04-15T13:31:09;11.00;99.90
7496;DHT22;3789;47.064;15.482;2023-04-15T13:33:39;10.90;99.90
7496;DHT22;3789;47.064;15.482;2023-04-15T13:36:09;10.60;99.90
7496;DHT22;3789;47.064;15.482;2023-04-15T13:38:37;10.30;99.90
7496;DHT22;3789;47.064;15.482;2023-04-15T13:41:08;10.00;99.90
7496;DHT22;3789;47.064;15.482;2023-04-15T13:43:36;9.80;99.90
7496;DHT22;3789;47.064;15.482;2023-04-15T13:46:05;9.60;99.90
7496;DHT22;3789;47.064;15.482;2023-04-15T13:48:34;9.30;99.90
7496;DHT22;3789;47.064;15.482;2023-04-15T13:51:03;9.10;99.90
7496;DHT22;3789;47.064;15.482;2023-04-15T13:53:35;8.40;99.90
7496;DHT22;3789;47.064;15.482;2023-04-15T13:56:11;7.50;99.90
7496;DHT22;3789;47.064;15.482;2023-04-15T13:58:43;6.50;99.90
7496;DHT22;3789;47.064;15.482;2023-04-15T14:01:11;5.50;99.90
7496;DHT22;3789;47.064;15.482;2023-04-15T14:03:41;4.70;99.90
7496;DHT22;3789;47.064;15.482;2023-04-15T14:06:10;5.10;99.90
7496;DHT22;3789;47.064;15.482;2023-04-15T14:08:40;5.80;99.90
7496;DHT22;3789;47.064;15.482;2023-04-15T14:11:13;5.20;99.90
7496;DHT22;3789;47.064;15.482;2023-04-15T14:13:44;3.80;99.90
7496;DHT22;3789;47.064;15.482;2023-04-15T14:16:20;3.80;99.90
7496;DHT22;3789;47.064;15.482;2023-04-15T14:18:48;3.30;99.90
7496;DHT22;3789;47.064;15.482;2023-04-15T14:21:18;3.70;99.90
7496;DHT22;3789;47.064;15.482;2023-04-15T14:23:46;4.40;99.90
7496;DHT22;3789;47.064;15.482;2023-04-15T14:26:17;5.10;99.90
7496;DHT22;3789;47.064;15.482;2023-04-15T14:28:47;5.90;99.90
7496;DHT22;3789;47.064;15.482;2023-04-15T14:31:24;6.60;99.90
7496;DHT22;3789;47.064;15.482;2023-04-15T14:33:52;7.10;99.90
7496;DHT22;3789;47.064;15.482;2023-04-15T14:36:21;7.50;99.90
7496;DHT22;3789;47.064;15.482;2023-04-15T14:38:52;7.90;99.90
7496;DHT22;3789;47.064;15.482;2023-04-15T14:41:21;8.20;99.90
7496;DHT22;3789;47.064;15.482;2023-04-15T14:43:50;8.40;99.90
7496;DHT22;3789;47.064;15.482;2023-04-15T14:46:18;8.60;99.90
7496;DHT22;3789;47.064;15.482;2023-04-15T14:48:48;8.80;99.90
7496;DHT22;3789;47.064;15.482;2023-04-15T14:51:18;8.90;99.90
7496;DHT22;3789;47.064;15.482;2023-04-15T14:53:46;9.00;99.90
7496;DHT22;3789;47.064;15.482;2023-04-15T14:56:19;9.10;99.90
7496;DHT22;3789;47.064;15.482;2023-04-15T14:58:48;9.20;99.90
7496;DHT22;3789;47.064;15.482;2023-04-15T15:01:26;9.30;99.90
7496;DHT22;3789;47.064;15.482;2023-04-15T15:03:55;9.20;99.90
7496;DHT22;3789;47.064;15.482;2023-04-15T15:06:25;9.20;99.90
7496;DHT22;3789;47.064;15.482;2023-04-15T15:08:53;9.20;99.90
7496;DHT22;3789;47.064;15.482;2023-04-15T15:11:24;9.10;99.90
7496;DHT22;3789;47.064;15.482;2023-04-15T15:13:51;9.20;99.90
7496;DHT22;3789;47.064;15.482;2023-04-15T15:16:20;9.20;99.90
7496;DHT22;3789;47.064;15.482;2023-04-15T15:18:47;9.40;99.90
7496;DHT22;3789;47.064;15.482;2023-04-15T15:21:16;9.50;99.90
7496;DHT22;3789;47.064;15.482;2023-04-15T15:23:51;9.50;99.90
7496;DHT22;3789;47.064;15.482;2023-04-15T15:26:23;9.50;99.90
7496;DHT22;3789;47.064;15.482;2023-04-15T15:28:50;9.50;99.90
7496;DHT22;3789;47.064;15.482;2023-04-15T15:31:24;9.60;99.90
7496;DHT22;3789;47.064;15.482;2023-04-15T15:33:52;9.70;99.90
7496;DHT22;3789;47.064;15.482;2023-04-15T15:36:19;9.70;99.90
7496;DHT22;3789;47.064;15.482;2023-04-15T15:38:51;9.70;99.90
7496;DHT22;3789;47.064;15.482;2023-04-15T15:41:26;9.80;99.90
7496;DHT22;3789;47.064;15.482;2023-04-15T15:43:54;9.80;99.90
7496;DHT22;3789;47.064;15.482;2023-04-15T15:46:22;9.90;99.90
7496;DHT22;3789;47.064;15.482;2023-04-15T15:48:51;9.90;99.90
7496;DHT22;3789;47.064;15.482;2023-04-15T15:51:20;10.00;99.90
7496;DHT22;3789;47.064;15.482;2023-04-15T15:53:48;10.00;99.90
7496;DHT22;3789;47.064;15.482;2023-04-15T15:56:19;9.80;99.90
7496;DHT22;3789;47.064;15.482;2023-04-15T15:58:48;9.70;99.90
7496;DHT22;3789;47.064;15.482;2023-04-15T16:01:22;9.70;99.90
7496;DHT22;3789;47.064;15.482;2023-04-15T16:03:51;9.70;99.90
7496;DHT22;3789;47.064;15.482;2023-04-15T16:06:21;9.60;99.90
7496;DHT22;3789;47.064;15.482;2023-04-15T16:08:50;9.50;99.90
7496;DHT22;3789;47.064;15.482;2023-04-15T16:11:20;9.50;99.90
7496;DHT22;3789;47.064;15.482;2023-04-15T16:13:50;9.50;99.90
7496;DHT22;3789;47.064;15.482;2023-04-15T16:16:18;9.50;99.90
7496;DHT22;3789;47.064;15.482;2023-04-15T16:18:49;9.40;99.90
7496;DHT22;3789;47.064;15.482;2023-04-15T16:21:20;9.30;99.90
7496;DHT22;3789;47.064;15.482;2023-04-15T16:23:52;9.20;99.90
7496;DHT22;3789;47.064;15.482;2023-04-15T16:26:20;9.20;99.90
7496;DHT22;3789;47.064;15.482;2023-04-15T16:28:50;9.20;99.90
7496;DHT22;3789;47.064;15.482;2023-04-15T16:31:19;9.20;99.90
7496;DHT22;3789;47.064;15.482;2023-04-15T16:33:49;9.20;99.90
7496;DHT22;3789;47.064;15.482;2023-04-15T16:36:20;9.20;99.90
7496;DHT22;3789;47.064;15.482;2023-04-15T16:38:51;9.20;99.90
7496;DHT22;3789;47.064;15.482;2023-04-15T16:41:20;9.20;99.90
7496;DHT22;3789;47.064;15.482;2023-04-15T16:43:49;9.20;99.90
7496;DHT22;3789;47.064;15.482;2023-04-15T16:46:18;9.20;99.90
7496;DHT22;3789;47.064;15.482;2023-04-15T16:48:48;9.20;99.90
7496;DHT22;3789;47.064;15.482;2023-04-15T16:51:15;9.20;99.90
7496;DHT22;3789;47.064;15.482;2023-04-15T16:53:45;9.20;99.90
7496;DHT22;3789;47.064;15.482;2023-04-15T16:56:17;9.20;99.90
7496;DHT22;3789;47.064;15.482;2023-04-15T16:58:47;9.20;99.90
7496;DHT22;3789;47.064;15.482;2023-04-15T17:01:15;9.20;99.90
7496;DHT22;3789;47.064;15.482;2023-04-15T17:03:55;9.20;99.90
7496;DHT22;3789;47.064;15.482;2023-04-15T17:06:25;9.20;99.90
7496;DHT22;3789;47.064;15.482;2023-04-15T17:08:54;9.10;99.90